Time;durP1;ratioP1;P1;durP2;ratioP2;P2;SDS_P1;SDS_P2;PMS_P1;PMS_P2;Temp;Humidity;BMP_temperature;BMP_pressure;BME280_temperature;BME280_humidity;BME280_pressure;Samples;Min_cycle;Max_cycle;Signal;HPM_P1;HPM_P2
2022/03/24 00:00:55;;;;;;;31.20;14.50;;;9.30;82.80;;;9.69;nan;101814.56;5031071;28;20623;-67
2022/03/24 00:03:22;;;;;;;24.33;12.40;;;9.20;84.20;;;9.68;nan;101807.69;5031434;28;20612;-66
2022/03/24 00:05:53;;;;;;;28.40;13.80;;;9.20;85.60;;;9.67;nan;101810.38;5030892;28;20661;-66
2022/03/24 00:08:20;;;;;;;27.67;12.87;;;9.20;86.50;;;9.70;nan;101804.97;5031152;28;20624;-66
2022/03/24 00:10:47;;;;;;;25.87;11.00;;;9.20;87.20;;;9.67;nan;101807.75;5030131;28;20633;-67
2022/03/24 00:13:15;;;;;;;21.17;10.53;;;9.20;87.60;;;9.66;nan;101812.13;5031026;28;21176;-67
2022/03/24 00:15:42;;;;;;;38.83;16.00;;;9.20;87.90;;;9.69;nan;101811.13;5013749;28;20641;-66
2022/03/24 00:18:09;;;;;;;32.53;15.93;;;9.20;87.80;;;9.72;nan;101809.22;5036424;28;20647;-66
2022/03/24 00:20:37;;;;;;;29.43;14.67;;;9.30;87.20;;;9.72;nan;101803.16;5050955;28;20623;-66
2022/03/24 00:23:04;;;;;;;27.33;13.73;;;9.20;88.40;;;9.70;nan;101810.19;5051133;28;20689;-66
2022/03/24 00:25:31;;;;;;;25.17;12.20;;;9.20;88.90;;;9.65;nan;101810.41;5050956;28;20714;-66
2022/03/24 00:27:58;;;;;;;39.90;14.20;;;9.20;89.60;;;9.69;nan;101808.53;5017818;28;20640;-63
2022/03/24 00:30:25;;;;;;;34.83;16.90;;;9.20;90.00;;;9.61;nan;101810.66;5029852;28;20691;-66
2022/03/24 00:32:52;;;;;;;37.30;15.10;;;9.10;90.10;;;9.58;nan;101806.44;5029386;28;20639;-67
2022/03/24 00:35:21;;;;;;;25.47;14.70;;;9.10;90.00;;;9.47;nan;101813.94;5029697;28;20656;-67
2022/03/24 00:37:48;;;;;;;27.87;15.20;;;9.00;90.40;;;9.22;nan;101816.88;5009673;28;20628;-66
2022/03/24 00:40:16;;;;;;;25.20;13.53;;;8.90;91.20;;;9.24;nan;101804.63;5029205;28;20995;-66
2022/03/24 00:42:44;;;;;;;24.47;13.90;;;8.80;91.10;;;9.22;nan;101803.84;5028678;28;21211;-66
2022/03/24 00:45:14;;;;;;;24.07;13.20;;;8.80;91.50;;;9.25;nan;101811.53;5028351;28;20640;-67
2022/03/24 00:47:44;;;;;;;25.73;13.70;;;8.80;91.50;;;9.24;nan;101807.22;5028355;28;20636;-68
2022/03/24 00:50:13;;;;;;;26.30;13.20;;;8.80;91.80;;;9.33;nan;101809.38;5029250;28;20639;-66
2022/03/24 00:52:44;;;;;;;27.33;14.90;;;8.90;91.60;;;9.38;nan;101802.22;5025103;28;20636;-66
2022/03/24 00:55:15;;;;;;;28.83;14.67;;;9.00;91.10;;;9.33;nan;101800.72;5034585;28;20664;-67
2022/03/24 00:57:46;;;;;;;25.27;14.30;;;8.90;91.10;;;9.35;nan;101807.56;5015902;28;20620;-66
2022/03/24 01:00:16;;;;;;;28.90;14.00;;;8.90;91.30;;;9.33;nan;101803.31;5014426;28;20643;-67
2022/03/24 01:02:49;;;;;;;28.23;13.10;;;8.90;91.70;;;9.31;nan;101805.16;5033556;28;20639;-68
2022/03/24 01:05:16;;;;;;;29.33;15.80;;;8.90;92.10;;;9.34;nan;101805.03;5033488;28;20976;-68
2022/03/24 01:07:45;;;;;;;24.83;13.57;;;8.90;92.00;;;9.30;nan;101812.16;5031572;28;20628;-68
2022/03/24 01:10:15;;;;;;;29.53;13.10;;;8.80;92.10;;;9.19;nan;101798.81;5032768;28;21202;-68
2022/03/24 01:12:44;;;;;;;22.50;11.13;;;8.80;92.60;;;9.19;nan;101806.63;5015296;28;20643;-67
2022/03/24 01:15:14;;;;;;;24.10;11.70;;;8.70;92.90;;;9.20;nan;101803.06;5034125;28;20679;-68
2022/03/24 01:17:42;;;;;;;21.43;10.70;;;8.70;93.30;;;9.05;nan;101796.00;5031951;28;20995;-68
2022/03/24 01:20:11;;;;;;;25.90;12.03;;;8.60;94.00;;;9.06;nan;101794.25;5034034;28;20631;-65
2022/03/24 01:22:39;;;;;;;25.07;13.50;;;8.60;94.60;;;8.99;nan;101785.88;5015780;28;21005;-69
2022/03/24 01:25:07;;;;;;;25.73;12.90;;;8.50;94.50;;;8.93;nan;101786.16;5023240;28;20645;-69
2022/03/24 01:27:34;;;;;;;27.07;12.10;;;8.50;94.70;;;8.92;nan;101788.84;5031407;28;20660;-68
2022/03/24 01:30:02;;;;;;;21.70;12.07;;;8.50;94.90;;;8.87;nan;101781.25;5031235;28;21001;-68
2022/03/24 01:32:29;;;;;;;26.47;12.77;;;8.40;95.00;;;8.85;nan;101788.28;5032826;28;21180;-68
2022/03/24 01:34:56;;;;;;;24.10;12.57;;;8.40;95.60;;;8.85;nan;101785.69;5032200;28;20668;-68
2022/03/24 01:37:24;;;;;;;27.70;12.77;;;8.40;95.90;;;8.91;nan;101776.72;5030673;28;20652;-67
2022/03/24 01:39:51;;;;;;;25.60;12.30;;;8.40;95.60;;;8.95;nan;101781.72;5027752;28;20637;-68
2022/03/24 01:42:20;;;;;;;23.13;11.37;;;8.50;95.60;;;8.93;nan;101777.50;5013642;28;20629;-68
2022/03/24 01:44:48;;;;;;;22.60;11.50;;;8.50;95.40;;;8.85;nan;101777.88;5012166;28;20629;-69
2022/03/24 01:47:16;;;;;;;25.07;12.57;;;8.40;95.80;;;8.87;nan;101776.03;5017261;28;20652;-67
2022/03/24 01:49:49;;;;;;;23.87;11.47;;;8.40;95.80;;;8.86;nan;101776.13;5017619;28;20640;-67
2022/03/24 01:52:18;;;;;;;24.97;12.20;;;8.40;95.90;;;8.88;nan;101772.50;5033312;28;20660;-67
2022/03/24 01:54:49;;;;;;;24.47;12.70;;;8.40;95.90;;;8.91;nan;101772.38;5019147;28;20668;-67
2022/03/24 01:57:17;;;;;;;24.17;13.27;;;8.50;95.60;;;8.95;nan;101768.72;5012037;28;21059;-68
2022/03/24 01:59:44;;;;;;;19.30;9.83;;;8.50;95.30;;;8.91;nan;101764.56;5031479;28;20632;-67
2022/03/24 02:02:11;;;;;;;23.50;12.30;;;8.50;95.30;;;8.93;nan;101770.53;5032271;28;20623;-67
2022/03/24 02:04:39;;;;;;;22.10;11.40;;;8.50;95.40;;;8.94;nan;101772.25;5031713;28;20647;-69
2022/03/24 02:07:07;;;;;;;21.53;10.47;;;8.50;95.30;;;8.96;nan;101765.22;5031881;28;20663;-66
2022/03/24 02:09:36;;;;;;;18.80;9.60;;;8.50;95.50;;;8.93;nan;101775.75;5013314;28;20666;-66
2022/03/24 02:12:12;;;;;;;19.70;9.80;;;8.50;95.40;;;8.93;nan;101772.28;5015301;28;20714;-66
2022/03/24 02:14:40;;;;;;;18.70;8.70;;;8.50;95.50;;;8.85;nan;101779.63;5014539;28;20674;-68
2022/03/24 02:17:07;;;;;;;13.00;7.73;;;8.40;96.40;;;8.75;nan;101768.81;5032553;28;20645;-69
2022/03/24 02:19:36;;;;;;;14.00;7.47;;;8.40;97.50;;;8.62;nan;101779.84;5033504;28;20628;-68
2022/03/24 02:22:09;;;;;;;18.47;8.93;;;8.20;98.20;;;8.45;nan;101772.81;5030982;28;20621;-67
2022/03/24 02:24:37;;;;;;;16.13;7.57;;;8.00;98.50;;;8.21;nan;101771.25;5030011;28;20652;-68
2022/03/24 02:27:04;;;;;;;19.90;8.40;;;7.80;99.30;;;8.02;nan;101778.19;5022534;28;20661;-65
2022/03/24 02:29:32;;;;;;;19.87;8.70;;;7.60;99.90;;;7.90;nan;101776.13;5014142;28;21046;-65
2022/03/24 02:31:59;;;;;;;24.17;9.63;;;7.50;99.90;;;7.83;nan;101778.97;5031387;28;20625;-67
2022/03/24 02:34:38;;;;;;;17.13;9.10;;;7.40;99.90;;;7.83;nan;101784.19;5012688;28;20221;-66
2022/03/24 02:37:12;;;;;;;18.70;9.17;;;7.40;99.90;;;7.82;nan;101782.47;5031849;28;20644;-67
2022/03/24 02:39:45;;;;;;;21.27;9.60;;;7.40;99.90;;;7.79;nan;101779.16;5015047;28;20604;-68
2022/03/24 02:42:16;;;;;;;17.80;8.70;;;7.40;99.90;;;7.77;nan;101781.81;5015071;28;20609;-68
2022/03/24 02:44:46;;;;;;;18.57;8.90;;;7.40;99.90;;;7.77;nan;101779.22;5013261;28;20636;-68
2022/03/24 02:47:14;;;;;;;14.63;8.10;;;7.30;99.90;;;7.82;nan;101777.28;5029402;28;20656;-67
2022/03/24 02:49:44;;;;;;;16.93;9.60;;;7.40;99.90;;;7.78;nan;101780.91;5030588;28;20647;-68
2022/03/24 02:52:11;;;;;;;23.52;8.90;;;7.40;99.90;;;7.74;nan;101781.97;5013001;28;20644;-68
2022/03/24 02:54:38;;;;;;;16.47;8.37;;;7.40;99.90;;;7.76;nan;101785.34;5013933;28;20225;-67
2022/03/24 02:57:06;;;;;;;20.30;9.37;;;7.40;99.90;;;7.78;nan;101782.66;5030232;28;20661;-67
2022/03/24 02:59:33;;;;;;;15.57;8.47;;;7.30;99.90;;;7.73;nan;101775.06;5028020;28;20659;-66
2022/03/24 03:02:08;;;;;;;22.70;9.87;;;7.30;99.90;;;7.78;nan;101783.50;5032016;28;20625;-68
2022/03/24 03:04:35;;;;;;;15.52;8.25;;;7.40;99.90;;;7.79;nan;101782.59;5012609;28;20613;-68
2022/03/24 03:07:04;;;;;;;19.45;8.48;;;7.30;99.90;;;7.78;nan;101785.25;5013981;28;20226;-67
2022/03/24 03:09:34;;;;;;;15.50;8.52;;;7.40;99.90;;;7.73;nan;101780.25;5014736;28;20210;-68
2022/03/24 03:12:01;;;;;;;15.43;8.55;;;7.30;99.90;;;7.72;nan;101781.19;5012826;28;20217;-67
2022/03/24 03:14:29;;;;;;;18.20;8.80;;;7.30;99.90;;;7.77;nan;101789.59;5031711;28;20279;-68
2022/03/24 03:17:00;;;;;;;18.10;8.97;;;7.40;99.90;;;7.78;nan;101787.84;5030855;28;20252;-67
2022/03/24 03:19:29;;;;;;;17.00;8.97;;;7.40;99.90;;;7.80;nan;101791.22;5013110;28;21010;-68
2022/03/24 03:21:57;;;;;;;19.97;9.47;;;7.40;99.90;;;7.75;nan;101786.22;5013097;28;20635;-68
2022/03/24 03:24:24;;;;;;;19.63;9.70;;;7.40;99.90;;;7.70;nan;101790.78;5028939;28;20655;-65
2022/03/24 03:26:53;;;;;;;18.60;9.80;;;7.30;99.90;;;7.73;nan;101795.03;5030403;28;20238;-67
2022/03/24 03:29:24;;;;;;;20.70;9.57;;;7.30;99.90;;;7.68;nan;101800.41;5030177;28;20210;-68
2022/03/24 03:31:54;;;;;;;16.80;8.57;;;7.30;99.90;;;7.70;nan;101797.72;5030109;28;20645;-67
2022/03/24 03:34:24;;;;;;;21.40;9.95;;;7.30;99.90;;;7.63;nan;101801.47;5031453;28;20616;-68
2022/03/24 03:36:53;;;;;;;15.93;9.57;;;7.30;99.90;;;7.61;nan;101796.38;5031774;28;20241;-68
2022/03/24 03:39:22;;;;;;;20.83;9.45;;;7.30;99.90;;;7.58;nan;101804.25;5029653;28;20636;-68
2022/03/24 03:41:49;;;;;;;18.87;9.30;;;7.20;99.90;;;7.60;nan;101797.25;5012636;28;20206;-68
2022/03/24 03:44:16;;;;;;;17.15;8.75;;;7.20;99.90;;;7.61;nan;101804.16;5030263;28;20698;-67
2022/03/24 03:46:44;;;;;;;18.87;8.80;;;7.20;99.90;;;7.55;nan;101799.22;5031692;28;20222;-66
2022/03/24 03:49:11;;;;;;;26.53;8.10;;;7.20;99.90;;;7.55;nan;101794.03;5028816;28;21082;-67
2022/03/24 03:51:38;;;;;;;15.50;7.70;;;7.20;99.90;;;7.44;nan;101796.19;5031276;28;20686;-66
2022/03/24 03:54:10;;;;;;;17.47;8.77;;;7.10;99.90;;;7.42;nan;101794.56;5010798;28;21049;-67
2022/03/24 03:56:38;;;;;;;19.07;9.70;;;7.00;99.90;;;7.44;nan;101798.81;5030818;28;21239;-66
2022/03/24 03:59:07;;;;;;;15.52;7.95;;;7.00;99.90;;;7.42;nan;101803.22;5013237;28;20624;-67
2022/03/24 04:01:34;;;;;;;14.05;7.07;;;7.10;99.90;;;7.37;nan;101797.34;5029747;28;20194;-67
2022/03/24 04:04:04;;;;;;;18.63;7.47;;;7.00;99.90;;;7.32;nan;101801.91;5030696;28;20214;-68
2022/03/24 04:06:31;;;;;;;16.35;8.35;;;6.90;99.90;;;7.24;nan;101803.94;5028702;28;20230;-66
2022/03/24 04:08:58;;;;;;;11.20;7.03;;;6.90;99.90;;;7.12;nan;101807.03;5029551;28;20202;-67
2022/03/24 04:11:25;;;;;;;12.90;7.20;;;6.80;99.90;;;7.05;nan;101797.78;5014302;28;20624;-67
2022/03/24 04:13:53;;;;;;;11.35;6.60;;;6.60;99.90;;;7.06;nan;101799.47;5030871;28;20615;-67
2022/03/24 04:16:22;;;;;;;15.27;7.85;;;6.70;99.90;;;6.95;nan;101804.22;5031004;28;20264;-66
2022/03/24 04:18:49;;;;;;;13.95;7.53;;;6.60;99.90;;;6.92;nan;101802.59;5011674;28;20208;-67
2022/03/24 04:21:18;;;;;;;19.23;9.77;;;6.50;99.90;;;6.96;nan;101811.94;5028191;28;20210;-65
2022/03/24 04:23:46;;;;;;;19.60;9.27;;;6.60;99.90;;;6.91;nan;101811.28;5028930;28;20212;-65
2022/03/24 04:26:13;;;;;;;18.60;9.05;;;6.60;99.90;;;6.89;nan;101801.88;5033030;28;20711;-64
2022/03/24 04:28:43;;;;;;;12.82;7.00;;;6.60;99.90;;;6.85;nan;101808.09;5033187;28;20206;-66
2022/03/24 04:31:11;;;;;;;18.20;7.63;;;6.50;99.90;;;6.84;nan;101816.75;5016886;28;20206;-66
2022/03/24 04:33:39;;;;;;;18.55;9.32;;;6.50;99.90;;;6.78;nan;101804.88;5015432;28;20209;-63
2022/03/24 04:36:08;;;;;;;13.55;7.13;;;6.50;99.90;;;6.78;nan;101804.88;5034493;28;20237;-64
2022/03/24 04:38:36;;;;;;;13.75;7.30;;;6.40;99.90;;;6.75;nan;101804.16;5033104;28;20390;-65
2022/03/24 04:41:05;;;;;;;15.05;8.15;;;6.40;99.90;;;6.74;nan;101800.72;5033787;28;20582;-66
2022/03/24 04:43:34;;;;;;;16.58;8.32;;;6.40;99.90;;;6.73;nan;101805.97;5032904;28;20201;-67
2022/03/24 04:46:01;;;;;;;18.20;8.85;;;6.40;99.90;;;6.70;nan;101806.91;5016609;28;20234;-64
2022/03/24 04:48:29;;;;;;;28.08;9.82;;;6.30;99.90;;;6.79;nan;101805.72;5006888;28;20252;-65
2022/03/24 04:50:56;;;;;;;17.38;9.05;;;6.40;99.90;;;6.81;nan;101809.13;5033535;28;20206;-65
2022/03/24 04:53:23;;;;;;;18.30;8.88;;;6.50;99.90;;;6.82;nan;101815.97;5031773;28;20209;-65
2022/03/24 04:55:50;;;;;;;21.00;9.70;;;6.50;99.90;;;6.83;nan;101817.69;5046932;22;20225;-70
2022/03/24 04:58:16;;;;;;;16.80;8.60;;;6.50;99.90;;;6.85;nan;101810.69;5010769;28;20218;-72
2022/03/24 05:00:43;;;;;;;14.88;8.18;;;6.50;99.90;;;6.90;nan;101813.94;5029185;28;21152;-68
2022/03/24 05:03:11;;;;;;;13.52;7.45;;;6.50;99.90;;;6.85;nan;101819.31;5032794;28;20210;-70
2022/03/24 05:05:38;;;;;;;12.07;7.18;;;6.60;99.90;;;6.75;nan;101815.34;5032161;28;20212;-68
2022/03/24 05:08:05;;;;;;;18.15;8.52;;;6.40;99.90;;;6.75;nan;101817.13;5001443;28;20209;-68
2022/03/24 05:10:32;;;;;;;18.75;9.52;;;6.40;99.90;;;6.72;nan;101825.00;5013663;28;20570;-68
2022/03/24 05:12:59;;;;;;;15.27;7.78;;;6.40;99.90;;;6.70;nan;101825.06;5015588;28;20206;-70
2022/03/24 05:15:27;;;;;;;13.38;7.65;;;6.30;99.90;;;6.64;nan;101821.84;5035032;28;20256;-70
2022/03/24 05:17:54;;;;;;;21.27;10.45;;;6.30;99.90;;;6.63;nan;101826.19;5016684;28;20886;-68
2022/03/24 05:20:21;;;;;;;13.93;7.43;;;6.30;99.90;;;6.63;nan;101831.38;5034285;28;20658;-70
2022/03/24 05:22:48;;;;;;;13.63;7.20;;;6.30;99.90;;;6.56;nan;101823.91;5029102;28;20203;-68
2022/03/24 05:25:15;;;;;;;13.35;7.00;;;6.20;99.90;;;6.54;nan;101831.72;5020509;28;20198;-68
2022/03/24 05:27:42;;;;;;;13.25;7.05;;;6.20;99.90;;;6.54;nan;101828.28;5033228;28;20226;-70
2022/03/24 05:30:11;;;;;;;14.32;6.90;;;6.10;99.90;;;6.50;nan;101831.88;5032669;28;20589;-68
2022/03/24 05:32:41;;;;;;;11.60;6.80;;;6.10;99.90;;;6.40;nan;101833.97;5025548;28;20206;-68
2022/03/24 05:35:09;;;;;;;12.15;6.82;;;6.00;99.90;;;6.41;nan;101834.81;5013811;28;20222;-68
2022/03/24 05:37:37;;;;;;;15.65;7.53;;;6.10;99.90;;;6.41;nan;101830.47;5010721;28;20222;-70
2022/03/24 05:40:04;;;;;;;13.60;7.07;;;6.00;99.90;;;6.53;nan;101834.38;5018801;28;20616;-70
2022/03/24 05:42:32;;;;;;;18.35;8.38;;;6.20;99.90;;;6.71;nan;101839.72;5014803;28;20214;-68
2022/03/24 05:44:59;;;;;;;17.65;8.02;;;6.50;99.90;;;6.93;nan;101839.78;5032490;28;20210;-68
2022/03/24 05:47:26;;;;;;;15.30;8.35;;;6.70;99.90;;;7.15;nan;101838.06;4981948;28;20238;-68
2022/03/24 05:49:53;;;;;;;17.92;8.98;;;7.00;99.90;;;7.40;nan;101835.34;5013526;28;20213;-68
2022/03/24 05:52:21;;;;;;;16.85;8.80;;;7.40;99.90;;;7.74;nan;101836.53;5012421;28;20214;-72
2022/03/24 05:54:48;;;;;;;15.97;9.30;;;7.80;99.90;;;8.10;nan;101833.28;5009701;28;20214;-71
2022/03/24 05:57:15;;;;;;;17.83;8.70;;;8.20;99.90;;;8.45;nan;101836.06;5018235;28;21266;-68
2022/03/24 05:59:42;;;;;;;20.13;10.07;;;8.60;99.90;;;8.87;nan;101842.88;5010886;28;20221;-71
2022/03/24 06:02:09;;;;;;;16.97;9.70;;;9.10;99.90;;;9.34;nan;101849.31;5011937;28;20644;-65
2022/03/24 06:04:41;;;;;;;16.77;9.30;;;9.60;99.90;;;9.79;nan;101851.44;5013324;28;20613;-69
2022/03/24 06:07:11;;;;;;;15.47;7.80;;;10.10;99.90;;;10.23;nan;101844.88;5012134;28;20665;-69
2022/03/24 06:09:38;;;;;;;18.83;9.90;;;10.60;98.80;;;10.71;nan;101839.69;5012395;28;21048;-69
2022/03/24 06:12:08;;;;;;;23.80;8.20;;;11.10;96.20;;;11.22;nan;101845.63;5010290;28;20642;-69
2022/03/24 06:14:36;;;;;;;17.30;9.60;;;11.70;93.90;;;11.72;nan;101848.03;5012293;28;20744;-69
2022/03/24 06:17:04;;;;;;;20.83;10.20;;;12.20;92.20;;;12.27;nan;101855.19;5013140;28;20673;-69
2022/03/24 06:19:35;;;;;;;25.27;12.10;;;12.80;90.50;;;12.83;nan;101850.88;5031315;28;20643;-72
2022/03/24 06:22:03;;;;;;;24.10;11.50;;;13.40;86.10;;;13.36;nan;101858.84;5019993;28;20632;-69
2022/03/24 06:24:31;;;;;;;20.23;11.47;;;13.90;80.50;;;13.79;nan;101857.75;4988956;28;20629;-69
2022/03/24 06:26:58;;;;;;;23.20;12.57;;;14.40;76.30;;;14.08;nan;101857.56;5031515;28;20659;-69
2022/03/24 06:29:25;;;;;;;23.43;13.30;;;14.90;72.30;;;14.45;nan;101854.19;5032058;28;20612;-70
2022/03/24 06:31:52;;;;;;;27.60;14.00;;;15.10;70.20;;;14.67;nan;101857.84;5032682;28;20632;-72
2022/03/24 06:34:20;;;;;;;23.50;13.37;;;15.40;68.10;;;15.12;nan;101859.00;5032189;28;20640;-69
2022/03/24 06:36:47;;;;;;;27.73;13.80;;;15.80;66.50;;;15.36;nan;101857.25;5023344;28;20673;-70
2022/03/24 06:39:14;;;;;;;28.80;14.60;;;16.20;64.10;;;15.22;nan;101854.78;5014015;28;20630;-70
2022/03/24 06:41:41;;;;;;;24.00;14.07;;;16.20;62.90;;;14.78;nan;101860.56;5011355;28;20644;-70
2022/03/24 06:44:08;;;;;;;24.53;14.60;;;16.00;63.20;;;14.90;nan;101851.00;5012450;28;21017;-70
2022/03/24 06:46:36;;;;;;;25.00;14.60;;;16.30;61.50;;;15.30;nan;101857.69;5024722;28;20660;-70
2022/03/24 06:49:05;;;;;;;23.83;13.43;;;16.60;60.40;;;15.80;nan;101861.09;5021175;28;20640;-70
2022/03/24 06:51:34;;;;;;;28.50;15.33;;;17.10;59.20;;;16.16;nan;101864.41;4992658;28;20641;-70
2022/03/24 06:54:04;;;;;;;30.47;15.23;;;17.50;58.90;;;16.78;nan;101862.22;5018493;28;21049;-70
2022/03/24 06:56:31;;;;;;;27.27;14.40;;;17.90;57.20;;;17.84;nan;101866.81;5009724;28;20677;-70
2022/03/24 06:58:58;;;;;;;27.47;16.23;;;18.90;55.40;;;18.37;nan;101862.28;4991939;28;20637;-70
2022/03/24 07:01:25;;;;;;;32.63;16.23;;;19.30;54.00;;;18.70;nan;101864.69;5012672;28;20644;-70
2022/03/24 07:03:53;;;;;;;25.83;15.10;;;19.80;52.80;;;19.11;nan;101869.03;5010560;28;20638;-69
2022/03/24 07:06:21;;;;;;;28.23;15.63;;;20.20;51.90;;;19.46;nan;101864.13;5012599;28;20658;-70
2022/03/24 07:08:47;;;;;;;27.80;15.97;;;20.60;50.90;;;20.20;nan;101872.28;5012949;28;20640;-71
2022/03/24 07:11:14;;;;;;;31.37;15.80;;;21.30;49.70;;;20.42;nan;101870.16;5031103;28;20620;-70
2022/03/24 07:13:41;;;;;;;28.50;17.10;;;21.60;48.80;;;19.96;nan;101873.59;5030411;28;20632;-70
2022/03/24 07:16:09;;;;;;;27.67;16.47;;;21.30;48.80;;;20.46;nan;101871.59;5031494;28;20676;-70
2022/03/24 07:18:37;;;;;;;27.50;16.30;;;21.60;48.10;;;20.76;nan;101873.16;5021975;28;20668;-72
2022/03/24 07:21:04;;;;;;;25.63;15.77;;;21.80;48.00;;;21.56;nan;101878.56;5009712;28;20621;-70
2022/03/24 07:23:31;;;;;;;29.23;16.60;;;22.70;46.80;;;22.22;nan;101873.66;5010726;28;20621;-70
2022/03/24 07:25:58;;;;;;;24.07;12.70;;;23.20;45.90;;;22.52;nan;101878.53;5009931;28;20677;-72
2022/03/24 07:28:25;;;;;;;29.37;15.27;;;23.50;44.90;;;22.74;nan;101874.50;5010403;28;20637;-70
2022/03/24 07:30:52;;;;;;;30.57;16.57;;;23.80;44.10;;;22.49;nan;101878.81;5020293;28;21172;-72
2022/03/24 07:33:20;;;;;;;26.57;15.93;;;23.70;43.80;;;22.56;nan;101877.22;5031444;28;20624;-70
2022/03/24 07:35:48;;;;;;;25.40;15.33;;;23.80;43.30;;;22.65;nan;101876.31;5012199;28;20656;-71
2022/03/24 07:38:16;;;;;;;27.37;16.53;;;23.80;43.30;;;22.80;nan;101869.38;5016353;28;20629;-70
2022/03/24 07:40:49;;;;;;;24.23;14.90;;;23.80;42.80;;;22.72;nan;101881.81;5027224;28;20651;-70
2022/03/24 07:43:19;;;;;;;28.93;17.10;;;23.70;43.20;;;22.71;nan;101869.50;5030196;28;20975;-71
2022/03/24 07:45:47;;;;;;;22.77;14.37;;;23.70;43.50;;;22.89;nan;101870.25;5023648;28;21038;-72
2022/03/24 07:48:17;;;;;;;27.40;17.70;;;23.80;43.10;;;22.90;nan;101877.22;5005108;28;20656;-70
2022/03/24 07:50:48;;;;;;;24.13;15.27;;;23.80;42.90;;;23.30;nan;101873.91;5026575;28;20628;-70
2022/03/24 07:53:15;;;;;;;26.67;16.63;;;23.90;42.70;;;23.34;nan;101875.25;5029305;28;20632;-70
2022/03/24 07:55:44;;;;;;;29.80;17.67;;;24.00;42.50;;;22.96;nan;101874.78;5006588;28;20676;-68
2022/03/24 07:58:14;;;;;;;27.77;16.37;;;23.90;42.10;;;23.32;nan;101882.56;5010477;28;21212;-70
2022/03/24 08:00:43;;;;;;;25.00;16.40;;;23.60;42.40;;;23.40;nan;101869.28;5008821;28;20634;-72
2022/03/24 08:03:19;;;;;;;24.70;16.00;;;23.70;43.00;;;24.02;nan;101882.00;5024449;28;20628;-71
2022/03/24 08:05:48;;;;;;;35.23;14.37;;;24.30;42.50;;;24.31;nan;101874.31;4990778;28;20691;-71
2022/03/24 08:08:16;;;;;;;25.33;15.03;;;24.70;41.40;;;24.36;nan;101874.63;5018959;28;20651;-70
2022/03/24 08:10:46;;;;;;;23.13;15.13;;;24.80;40.70;;;24.39;nan;101874.28;5011692;28;21240;-72
2022/03/24 08:13:15;;;;;;;23.03;15.17;;;24.70;40.80;;;24.42;nan;101878.47;5017301;28;20640;-70
2022/03/24 08:15:43;;;;;;;24.30;16.47;;;24.80;40.20;;;23.82;nan;101873.50;4991900;28;21249;-71
2022/03/24 08:18:11;;;;;;;27.23;15.80;;;24.50;40.00;;;24.31;nan;101876.16;5004272;28;20648;-73
2022/03/24 08:20:39;;;;;;;21.63;14.30;;;24.70;40.30;;;25.20;nan;101880.19;5016709;28;20637;-71
2022/03/24 08:23:08;;;;;;;24.60;13.50;;;25.50;39.60;;;25.72;nan;101880.38;5014348;28;21013;-71
2022/03/24 08:25:41;;;;;;;23.97;16.10;;;26.10;38.60;;;26.20;nan;101886.34;5020550;28;20633;-70
2022/03/24 08:28:10;;;;;;;25.17;16.03;;;26.60;38.20;;;26.61;nan;101879.56;5012679;28;21163;-71
2022/03/24 08:30:37;;;;;;;23.20;16.70;;;27.20;37.60;;;27.55;nan;101887.56;5030136;28;20678;-70
2022/03/24 08:33:05;;;;;;;25.60;17.83;;;28.10;36.90;;;28.17;nan;101888.59;5031357;28;20624;-71
2022/03/24 08:35:32;;;;;;;22.90;16.30;;;29.00;36.00;;;28.78;nan;101889.59;5011678;28;20629;-72
2022/03/24 08:38:00;;;;;;;23.70;16.77;;;29.50;35.20;;;28.33;nan;101898.19;5012948;28;20722;-70
2022/03/24 08:40:27;;;;;;;26.30;17.67;;;29.60;34.90;;;29.10;nan;101886.25;5010126;28;20637;-69
2022/03/24 08:42:54;;;;;;;21.00;15.43;;;30.10;34.80;;;29.37;nan;101900.59;5010161;28;20629;-71
2022/03/24 08:45:22;;;;;;;23.30;16.97;;;30.70;34.50;;;29.39;nan;101887.78;5018487;28;20612;-70
2022/03/24 08:47:49;;;;;;;22.37;16.60;;;31.30;33.70;;;30.68;nan;101892.59;5017954;28;20657;-70
2022/03/24 08:50:16;;;;;;;24.27;15.23;;;32.10;33.50;;;31.63;nan;101889.88;5004510;28;20640;-70
2022/03/24 08:52:44;;;;;;;23.60;17.90;;;33.20;32.90;;;31.61;nan;101880.34;4996521;28;20642;-70
2022/03/24 08:55:13;;;;;;;22.97;16.47;;;33.80;32.10;;;32.34;nan;101887.66;4992456;28;21051;-70
2022/03/24 08:57:43;;;;;;;23.40;17.20;;;34.40;31.60;;;32.46;nan;101890.41;4989833;28;21229;-70
2022/03/24 09:00:15;;;;;;;26.10;17.20;;;35.10;30.90;;;33.13;nan;101889.47;4974391;28;20622;-71
2022/03/24 09:02:49;;;;;;;22.30;18.37;;;35.30;30.60;;;32.50;nan;101894.38;5011773;28;21177;-71
2022/03/24 09:05:18;;;;;;;26.83;18.47;;;35.50;30.10;;;34.10;nan;101898.00;5007276;28;20638;-71
2022/03/24 09:07:46;;;;;;;24.50;18.30;;;36.60;30.20;;;34.76;nan;101900.34;5017033;28;20660;-71
2022/03/24 09:10:15;;;;;;;24.43;17.87;;;37.50;29.80;;;35.32;nan;101896.03;4997858;28;20644;-69
2022/03/24 09:12:46;;;;;;;18.70;14.67;;;38.20;29.60;;;35.17;nan;101891.16;4995347;28;20631;-73
2022/03/24 09:15:17;;;;;;;23.87;18.73;;;39.20;29.10;;;32.91;nan;101886.41;4993186;28;20634;-70
2022/03/24 09:17:45;;;;;;;23.77;18.10;;;37.80;29.10;;;34.14;nan;101887.53;4992687;28;20670;-71
2022/03/24 09:20:18;;;;;;;21.87;17.60;;;37.90;29.20;;;34.47;nan;101884.22;4977178;28;20626;-70
2022/03/24 09:22:47;;;;;;;24.13;18.40;;;38.00;29.10;;;35.08;nan;101885.28;5017904;28;20652;-67
2022/03/24 09:25:18;;;;;;;20.27;16.90;;;38.60;29.00;;;36.02;nan;101880.16;5022215;28;20618;-68
2022/03/24 09:27:47;;;;;;;18.70;15.37;;;39.10;28.90;;;37.03;nan;101887.84;5018268;28;21056;-67
2022/03/24 09:30:18;;;;;;;28.50;17.47;;;39.90;28.90;;;37.33;nan;101890.88;5003493;28;21024;-67
2022/03/24 09:32:47;;;;;;;24.20;18.80;;;40.80;28.40;;;37.44;nan;101878.22;5013408;28;21173;-67
2022/03/24 09:35:15;;;;;;;19.27;13.10;;;40.90;28.30;;;37.47;nan;101881.25;5017450;28;20644;-67
2022/03/24 09:37:43;;;;;;;20.40;15.30;;;41.20;28.20;;;37.16;nan;101884.72;5014098;28;20665;-67
2022/03/24 09:40:12;;;;;;;22.43;18.17;;;40.90;28.10;;;37.10;nan;101883.84;5018650;28;21257;-67
2022/03/24 09:42:39;;;;;;;22.60;17.67;;;40.60;28.20;;;37.72;nan;101881.44;5032075;28;20613;-67
2022/03/24 09:45:11;;;;;;;22.80;17.97;;;41.00;28.10;;;36.61;nan;101879.41;5014119;28;20633;-67
2022/03/24 09:47:40;;;;;;;23.70;18.20;;;40.60;27.50;;;38.14;nan;101878.81;5012401;28;20645;-67
2022/03/24 09:50:09;;;;;;;20.63;17.70;;;41.10;27.70;;;38.74;nan;101881.88;5025307;28;20639;-67
2022/03/24 09:52:37;;;;;;;22.13;18.43;;;42.00;27.70;;;39.64;nan;101872.25;5012939;28;20641;-67
2022/03/24 09:55:05;;;;;;;19.30;16.47;;;43.00;27.60;;;40.15;nan;101881.22;5022697;28;21184;-67
2022/03/24 09:57:33;;;;;;;24.27;19.20;;;43.70;27.30;;;39.25;nan;101876.59;5019537;28;20677;-67
2022/03/24 10:00:00;;;;;;;20.90;18.60;;;43.30;27.20;;;39.77;nan;101879.91;5015489;28;20641;-67
2022/03/24 10:02:29;;;;;;;20.57;17.03;;;43.30;27.40;;;39.73;nan;101876.06;5010632;28;20642;-68
2022/03/24 10:05:02;;;;;;;24.00;19.03;;;42.90;27.40;;;40.03;nan;101880.72;5001559;28;20699;-71
2022/03/24 10:07:43;;;;;;;21.83;18.37;;;43.40;27.10;;;39.91;nan;101889.16;5018935;28;21147;-70
2022/03/24 10:10:27;;;;;;;23.87;17.83;;;42.90;27.00;;;39.00;nan;101876.47;5006297;28;20638;-68
2022/03/24 10:12:54;;;;;;;20.93;14.27;;;42.70;26.90;;;38.54;nan;101884.50;5017409;28;20633;-67
2022/03/24 10:15:21;;;;;;;22.10;18.20;;;42.50;26.80;;;38.85;nan;101882.72;4998274;28;20646;-66
2022/03/24 10:17:58;;;;;;;25.43;19.17;;;42.30;26.90;;;38.61;nan;101876.88;5006417;28;20668;-67
2022/03/24 10:20:29;;;;;;;29.60;19.70;;;42.40;26.70;;;39.00;nan;101871.84;5008772;28;20624;-70
2022/03/24 10:23:03;;;;;;;21.23;18.00;;;42.50;26.70;;;39.00;nan;101868.28;5004290;28;20628;-67
2022/03/24 10:25:34;;;;;;;19.67;16.67;;;42.60;26.70;;;39.81;nan;101877.44;5031277;28;20620;-67
2022/03/24 10:28:08;;;;;;;24.17;18.80;;;43.20;26.70;;;39.08;nan;101862.34;5013596;28;20686;-66